createdAt,value
2019-03-25T00:01:16.527Z,61.60
2019-03-25T00:03:44.153Z,61.50
2019-03-25T00:06:11.872Z,62.40
2019-03-25T00:08:40.598Z,62.10
2019-03-25T00:11:08.400Z,62.40
2019-03-25T00:13:36.022Z,61.90
2019-03-25T00:16:03.944Z,61.60
2019-03-25T00:18:31.523Z,61.90
2019-03-25T00:20:58.962Z,62.00
2019-03-25T00:23:26.604Z,61.00
2019-03-25T00:25:54.250Z,59.60
2019-03-25T00:28:21.868Z,60.10
2019-03-25T00:30:49.489Z,60.40
2019-03-25T00:33:17.012Z,60.10
2019-03-25T00:35:44.657Z,60.30
2019-03-25T00:38:12.332Z,60.30
2019-03-25T00:40:40.006Z,61.10
2019-03-25T00:43:07.607Z,61.30
2019-03-25T00:45:36.293Z,61.20
2019-03-25T00:48:03.816Z,60.60
2019-03-25T00:50:31.435Z,60.70
2019-03-25T00:52:59.078Z,61.70
2019-03-25T00:55:26.597Z,60.20
2019-03-25T00:57:54.260Z,61.00
2019-03-25T01:00:21.820Z,61.60
2019-03-25T01:02:49.549Z,61.90
2019-03-25T01:05:17.617Z,60.80
2019-03-25T01:07:45.130Z,60.50
2019-03-25T01:10:13.380Z,60.10
2019-03-25T01:12:40.830Z,61.10
2019-03-25T01:15:09.161Z,61.30
2019-03-25T01:17:36.769Z,61.30
2019-03-25T01:20:05.202Z,61.40
2019-03-25T01:22:32.891Z,60.20
2019-03-25T01:25:02.102Z,61.40
2019-03-25T01:27:29.867Z,61.50
2019-03-25T01:29:57.645Z,60.70
2019-03-25T01:32:25.081Z,61.70
2019-03-25T01:34:52.589Z,61.90
2019-03-25T01:37:20.211Z,61.30
2019-03-25T01:39:48.244Z,61.80
2019-03-25T01:42:15.919Z,61.90
2019-03-25T01:44:43.379Z,61.80
2019-03-25T01:47:10.896Z,62.10
2019-03-25T01:49:38.383Z,61.90
2019-03-25T01:52:05.891Z,62.70
2019-03-25T01:54:33.522Z,62.70
2019-03-25T01:57:00.982Z,62.30
2019-03-25T01:59:28.565Z,61.00
2019-03-25T02:01:56.108Z,61.90
2019-03-25T02:04:23.580Z,61.30
2019-03-25T02:06:51.167Z,62.60
2019-03-25T02:09:18.774Z,62.60
2019-03-25T02:11:46.318Z,62.40
2019-03-25T02:14:13.821Z,62.00
2019-03-25T02:16:41.412Z,61.90
2019-03-25T02:19:09.033Z,62.90
2019-03-25T02:21:36.769Z,62.40
2019-03-25T02:24:04.356Z,61.90
2019-03-25T02:26:31.898Z,63.30
2019-03-25T02:28:59.352Z,62.40
2019-03-25T02:31:26.835Z,62.40
2019-03-25T02:33:54.440Z,63.00
2019-03-25T02:36:22.043Z,62.40
2019-03-25T02:38:49.704Z,63.70
2019-03-25T02:41:18.827Z,63.00
2019-03-25T02:43:46.733Z,62.80
2019-03-25T02:46:14.331Z,63.10
2019-03-25T02:48:42.106Z,63.10
2019-03-25T02:51:09.775Z,63.60
2019-03-25T02:53:39.215Z,63.60
2019-03-25T02:56:06.820Z,63.40
2019-03-25T02:58:34.384Z,63.50
2019-03-25T03:01:02.114Z,63.60
2019-03-25T03:03:29.545Z,63.50
2019-03-25T03:05:57.131Z,63.50
2019-03-25T03:08:24.618Z,63.30
2019-03-25T03:10:52.205Z,62.30
2019-03-25T03:13:19.731Z,63.40
2019-03-25T03:15:47.285Z,63.40
2019-03-25T03:18:14.850Z,63.40
2019-03-25T03:20:42.416Z,63.50
2019-03-25T03:23:10.040Z,63.50
2019-03-25T03:25:38.071Z,63.70
2019-03-25T03:28:05.561Z,63.40
2019-03-25T03:30:33.358Z,63.60
2019-03-25T03:33:00.969Z,63.40
2019-03-25T03:35:28.519Z,63.40
2019-03-25T03:37:56.168Z,63.50
2019-03-25T03:40:23.741Z,63.50
2019-03-25T03:42:51.260Z,63.70
2019-03-25T03:45:18.879Z,64.60
2019-03-25T03:47:46.402Z,64.00
2019-03-25T03:50:23.429Z,64.60
2019-03-25T03:52:50.981Z,63.80
2019-03-25T03:55:18.694Z,63.70
2019-03-25T03:57:46.268Z,64.70
2019-03-25T04:00:25.149Z,64.40
2019-03-25T04:02:52.722Z,64.20
2019-03-25T04:05:20.408Z,65.30
2019-03-25T04:07:48.010Z,65.90
2019-03-25T04:10:15.993Z,65.80
2019-03-25T04:12:43.779Z,65.40
2019-03-25T04:15:16.791Z,65.00
2019-03-25T04:17:44.396Z,65.80
2019-03-25T04:20:11.981Z,65.80
2019-03-25T04:22:39.476Z,66.00
2019-03-25T04:25:07.077Z,67.40
2019-03-25T04:27:34.635Z,66.90
2019-03-25T04:30:02.389Z,67.10
2019-03-25T04:32:29.933Z,67.30
2019-03-25T04:34:57.525Z,67.20
2019-03-25T04:37:25.167Z,67.80
2019-03-25T04:39:52.751Z,67.50
2019-03-25T04:42:20.432Z,67.20
2019-03-25T04:44:47.993Z,67.00
2019-03-25T04:47:15.528Z,67.00
2019-03-25T04:49:43.157Z,68.00
2019-03-25T04:52:10.695Z,68.30
2019-03-25T04:54:38.217Z,67.60
2019-03-25T04:57:05.780Z,68.20
2019-03-25T04:59:33.427Z,67.90
2019-03-25T05:02:00.973Z,66.40
2019-03-25T05:04:28.543Z,68.50
2019-03-25T05:06:56.244Z,68.50
2019-03-25T05:09:27.056Z,67.70
2019-03-25T05:11:54.737Z,68.10
2019-03-25T05:14:22.329Z,68.20
2019-03-25T05:16:49.873Z,68.10
2019-03-25T05:19:17.448Z,67.90
2019-03-25T05:21:44.942Z,68.20
2019-03-25T05:24:12.564Z,68.20
2019-03-25T05:26:50.546Z,67.90
2019-03-25T05:29:10.820Z,68.00
2019-03-25T05:31:38.379Z,67.60
2019-03-25T05:34:05.909Z,69.10
2019-03-25T05:36:33.485Z,68.50
2019-03-25T05:39:01.077Z,68.60
2019-03-25T05:41:28.613Z,69.70
2019-03-25T05:43:56.221Z,68.90
2019-03-25T05:46:23.877Z,69.10
2019-03-25T05:48:51.626Z,68.60
2019-03-25T05:51:19.372Z,69.20
2019-03-25T05:53:47.029Z,69.10
2019-03-25T05:56:14.625Z,69.30
2019-03-25T05:58:42.269Z,70.90
2019-03-25T06:01:09.951Z,72.00
2019-03-25T06:03:37.936Z,71.80
2019-03-25T06:06:05.620Z,70.60
2019-03-25T06:08:33.064Z,69.60
2019-03-25T06:11:00.685Z,69.60
2019-03-25T06:13:28.108Z,69.60
2019-03-25T06:15:55.634Z,68.90
2019-03-25T06:18:23.176Z,69.00
2019-03-25T06:20:50.778Z,69.10
2019-03-25T06:23:18.378Z,68.80
2019-03-25T06:25:46.032Z,68.80
2019-03-25T06:28:13.563Z,68.90
2019-03-25T06:30:41.867Z,68.20
2019-03-25T06:33:12.755Z,68.30
2019-03-25T06:35:39.001Z,68.40
2019-03-25T06:38:06.916Z,68.50
2019-03-25T06:40:34.488Z,68.80
2019-03-25T06:43:02.114Z,68.10
2019-03-25T06:45:29.720Z,67.50
2019-03-25T06:47:57.300Z,67.80
2019-03-25T06:50:24.947Z,67.20
2019-03-25T06:52:52.567Z,67.10
2019-03-25T06:55:20.005Z,67.00
2019-03-25T06:57:47.549Z,66.80
2019-03-25T07:00:16.202Z,66.50
2019-03-25T07:02:43.783Z,67.10
2019-03-25T07:05:12.326Z,67.20
2019-03-25T07:07:39.913Z,67.70
2019-03-25T07:10:07.872Z,67.30
2019-03-25T07:12:36.152Z,67.70
2019-03-25T07:15:05.111Z,68.30
2019-03-25T07:17:32.974Z,68.70
2019-03-25T07:20:00.510Z,69.50
2019-03-25T07:22:28.168Z,70.30
2019-03-25T07:24:55.783Z,70.20
2019-03-25T07:27:23.345Z,70.60
2019-03-25T07:29:50.968Z,72.50
2019-03-25T07:32:19.013Z,74.90
2019-03-25T07:34:46.591Z,75.70
2019-03-25T07:37:14.320Z,77.60
2019-03-25T07:39:42.103Z,79.80
2019-03-25T07:42:09.895Z,78.10
2019-03-25T07:44:37.656Z,79.50
2019-03-25T07:47:05.318Z,81.00
2019-03-25T07:49:34.048Z,81.40
2019-03-25T07:52:01.643Z,79.60
2019-03-25T07:54:29.272Z,79.50
2019-03-25T07:56:56.804Z,79.60
2019-03-25T07:59:24.423Z,79.80
2019-03-25T08:01:51.916Z,78.50
2019-03-25T08:04:19.539Z,79.50
2019-03-25T08:06:47.298Z,77.70
2019-03-25T08:09:14.878Z,77.70
2019-03-25T08:11:42.450Z,78.10
2019-03-25T08:14:10.893Z,77.90
2019-03-25T08:16:38.567Z,77.80
2019-03-25T08:19:14.493Z,77.10
2019-03-25T08:21:42.163Z,75.40
2019-03-25T08:24:09.976Z,74.20
2019-03-25T08:26:37.744Z,73.50
2019-03-25T08:29:05.284Z,70.50
2019-03-25T08:31:32.978Z,67.20
2019-03-25T08:34:00.637Z,64.30
2019-03-25T08:36:29.376Z,66.90
2019-03-25T08:38:57.452Z,59.80
2019-03-25T08:41:25.106Z,54.50
2019-03-25T08:43:52.627Z,53.00
2019-03-25T08:46:20.693Z,54.30
2019-03-25T08:48:48.484Z,56.40
2019-03-25T08:51:16.089Z,59.00
2019-03-25T08:53:43.672Z,59.60
2019-03-25T08:56:11.344Z,61.20
2019-03-25T08:58:38.961Z,63.50
2019-03-25T09:01:06.490Z,65.50
2019-03-25T09:03:34.087Z,66.70
2019-03-25T09:06:02.895Z,67.30
2019-03-25T09:08:30.444Z,67.50
2019-03-25T09:10:58.098Z,65.60
2019-03-25T09:13:25.765Z,63.90
2019-03-25T09:15:53.347Z,62.60
2019-03-25T09:18:21.575Z,63.40
2019-03-25T09:20:49.201Z,64.10
2019-03-25T09:23:16.938Z,65.00
2019-03-25T09:25:44.611Z,65.70
2019-03-25T09:28:23.320Z,67.30
2019-03-25T09:31:17.196Z,67.20
2019-03-25T09:33:45.874Z,67.10
2019-03-25T09:36:14.352Z,67.90
2019-03-25T09:38:41.796Z,66.20
2019-03-25T09:41:10.561Z,66.90
2019-03-25T09:43:38.222Z,67.10
2019-03-25T09:46:07.461Z,67.20
2019-03-25T09:48:35.036Z,66.70
2019-03-25T09:51:02.714Z,65.60
2019-03-25T09:53:30.405Z,64.70
2019-03-25T09:55:58.112Z,61.40
2019-03-25T09:58:35.662Z,61.10
2019-03-25T10:00:54.991Z,61.00
2019-03-25T10:03:22.616Z,60.80
2019-03-25T10:05:50.636Z,59.90
2019-03-25T10:08:18.260Z,60.30
2019-03-25T10:10:50.254Z,58.20
2019-03-25T10:13:24.015Z,58.20
2019-03-25T10:15:53.117Z,57.10
2019-03-25T10:18:20.805Z,57.20
2019-03-25T10:20:48.362Z,57.80
2019-03-25T10:23:15.887Z,57.00
2019-03-25T10:25:43.515Z,53.60
2019-03-25T10:28:11.069Z,52.70
2019-03-25T10:30:38.542Z,52.40
2019-03-25T10:33:06.391Z,52.20
2019-03-25T10:35:33.956Z,53.50
2019-03-25T10:38:01.760Z,53.10
2019-03-25T10:40:29.531Z,53.30
2019-03-25T10:42:57.462Z,55.10
2019-03-25T10:45:25.114Z,53.50
2019-03-25T10:47:52.730Z,50.90
2019-03-25T10:50:20.459Z,49.00
2019-03-25T10:52:48.328Z,48.80
2019-03-25T10:55:15.847Z,50.50
2019-03-25T10:57:43.482Z,50.80
2019-03-25T11:00:12.035Z,51.00
2019-03-25T11:02:39.591Z,51.40
2019-03-25T11:05:07.934Z,50.90
2019-03-25T11:07:37.125Z,51.30
2019-03-25T11:10:05.438Z,50.20
2019-03-25T11:12:33.060Z,51.00
2019-03-25T11:15:00.697Z,51.30
2019-03-25T11:17:28.248Z,50.90
2019-03-25T11:19:55.870Z,50.40
2019-03-25T11:22:23.690Z,49.20
2019-03-25T11:24:51.266Z,48.90
2019-03-25T11:27:19.018Z,48.70
2019-03-25T11:29:47.692Z,48.70
2019-03-25T11:32:15.591Z,49.40
2019-03-25T11:34:43.226Z,48.50
2019-03-25T11:37:12.586Z,48.90
2019-03-25T11:39:40.217Z,50.00
2019-03-25T11:42:10.185Z,50.10
2019-03-25T11:44:37.576Z,50.40
2019-03-25T11:47:05.183Z,52.50
2019-03-25T11:49:36.091Z,53.90
2019-03-25T11:52:04.491Z,54.10
2019-03-25T11:54:32.270Z,54.80
2019-03-25T11:57:00.152Z,52.80
2019-03-25T11:59:29.091Z,53.80
2019-03-25T12:01:56.969Z,53.60
2019-03-25T12:04:24.678Z,53.70
2019-03-25T12:06:52.708Z,52.50
2019-03-25T12:09:20.592Z,52.80
2019-03-25T12:11:48.130Z,52.90
2019-03-25T12:14:15.869Z,52.70
2019-03-25T12:16:43.503Z,57.00
2019-03-25T12:19:10.981Z,60.90
2019-03-25T12:21:38.645Z,66.30
2019-03-25T12:24:06.366Z,70.60
2019-03-25T12:26:34.027Z,74.50
2019-03-25T12:29:01.495Z,77.10
2019-03-25T12:31:29.201Z,79.00
2019-03-25T12:33:56.829Z,79.90
2019-03-25T12:36:24.594Z,81.90
2019-03-25T12:38:52.228Z,81.10
2019-03-25T12:41:19.756Z,81.10
2019-03-25T12:43:47.388Z,81.50
2019-03-25T12:46:14.916Z,81.50
2019-03-25T12:48:42.397Z,79.00
2019-03-25T12:51:10.116Z,80.30
2019-03-25T12:53:37.639Z,82.20
2019-03-25T12:56:05.264Z,81.80
2019-03-25T12:58:32.739Z,80.60
2019-03-25T13:01:00.271Z,79.80
2019-03-25T13:03:27.896Z,78.80
2019-03-25T13:05:55.608Z,77.20
2019-03-25T13:08:32.773Z,76.20
2019-03-25T13:10:52.667Z,74.70
2019-03-25T13:13:20.246Z,74.20
2019-03-25T13:15:47.719Z,72.00
2019-03-25T13:18:15.250Z,71.00
2019-03-25T13:20:42.832Z,70.30
2019-03-25T13:23:10.367Z,69.80
2019-03-25T13:25:39.512Z,68.10
2019-03-25T13:28:07.226Z,67.40
2019-03-25T13:30:34.883Z,62.70
2019-03-25T13:33:02.463Z,62.80
2019-03-25T13:35:30.066Z,63.20
2019-03-25T13:37:59.004Z,64.40
2019-03-25T13:40:27.098Z,63.30
2019-03-25T13:42:54.738Z,64.30
2019-03-25T13:45:22.407Z,64.50
2019-03-25T13:47:49.992Z,62.30
2019-03-25T13:50:20.146Z,62.60
2019-03-25T13:52:47.281Z,61.20
2019-03-25T13:55:14.956Z,58.80
2019-03-25T13:57:42.761Z,60.60
2019-03-25T14:00:12.369Z,65.00
2019-03-25T14:02:39.951Z,67.70
2019-03-25T14:05:07.989Z,70.90
2019-03-25T14:07:35.665Z,71.70
2019-03-25T14:10:03.727Z,76.10
2019-03-25T14:12:31.375Z,76.60
2019-03-25T14:15:00.968Z,76.80
2019-03-25T14:17:30.891Z,76.90
2019-03-25T14:19:58.380Z,77.10
2019-03-25T14:22:25.846Z,77.00
2019-03-25T14:24:53.293Z,76.90
2019-03-25T14:27:20.815Z,76.90
2019-03-25T14:29:48.392Z,76.90
2019-03-25T14:32:15.969Z,77.00
2019-03-25T14:34:44.981Z,74.50
2019-03-25T14:37:12.738Z,75.60
2019-03-25T14:39:40.347Z,74.10
2019-03-25T14:42:07.840Z,72.30
2019-03-25T14:44:35.387Z,68.90
2019-03-25T14:47:03.062Z,68.30
2019-03-25T14:49:30.534Z,67.50
2019-03-25T14:51:57.974Z,67.30
2019-03-25T14:54:25.626Z,66.80
2019-03-25T14:56:53.205Z,66.70
2019-03-25T14:59:20.743Z,67.30
2019-03-25T15:01:48.464Z,66.60
2019-03-25T15:04:16.045Z,65.40
2019-03-25T15:06:43.644Z,65.00
2019-03-25T15:09:11.291Z,65.40
2019-03-25T15:11:38.949Z,65.50
2019-03-25T15:14:06.579Z,64.90
2019-03-25T15:16:34.059Z,63.90
2019-03-25T15:19:01.507Z,64.00
2019-03-25T15:21:29.052Z,64.50
2019-03-25T15:23:56.677Z,65.30
2019-03-25T15:26:24.219Z,65.10
2019-03-25T15:28:51.789Z,65.20
2019-03-25T15:31:19.369Z,66.60
2019-03-25T15:33:47.035Z,68.20
2019-03-25T15:36:14.456Z,67.30
2019-03-25T15:38:42.171Z,68.20
2019-03-25T15:41:09.822Z,68.60
2019-03-25T15:43:37.399Z,68.20
2019-03-25T15:46:04.851Z,68.50
2019-03-25T15:48:32.449Z,69.10
2019-03-25T15:51:00.112Z,68.40
2019-03-25T15:53:28.827Z,67.10
2019-03-25T15:55:57.616Z,67.90
2019-03-25T15:58:26.192Z,67.20
2019-03-25T16:00:54.262Z,67.60
2019-03-25T16:03:22.045Z,68.00
2019-03-25T16:05:50.004Z,67.60
2019-03-25T16:08:18.879Z,68.30
2019-03-25T16:10:46.460Z,70.00
2019-03-25T16:13:14.995Z,71.10
2019-03-25T16:15:42.757Z,72.40
2019-03-25T16:18:37.292Z,73.60
2019-03-25T16:21:05.166Z,74.50
2019-03-25T16:23:32.837Z,75.90
2019-03-25T16:26:00.354Z,76.90
2019-03-25T16:28:28.025Z,77.40
2019-03-25T16:30:59.043Z,79.40
2019-03-25T16:33:25.009Z,79.60
2019-03-25T16:35:52.732Z,80.80
2019-03-25T16:38:20.374Z,81.30
2019-03-25T16:40:47.970Z,81.30
2019-03-25T16:43:15.997Z,82.10
2019-03-25T16:45:43.637Z,81.20
2019-03-25T16:48:11.194Z,81.80
2019-03-25T16:50:38.857Z,82.40
2019-03-25T16:53:06.436Z,83.30
2019-03-25T16:55:34.108Z,83.20
2019-03-25T16:58:01.672Z,83.50
2019-03-25T17:00:29.424Z,82.90
2019-03-25T17:02:57.162Z,81.30
2019-03-25T17:05:24.770Z,81.00
2019-03-25T17:07:52.816Z,81.80
2019-03-25T17:10:20.657Z,80.70
2019-03-25T17:12:48.656Z,80.80
2019-03-25T17:15:16.094Z,81.20
2019-03-25T17:17:43.603Z,81.40
2019-03-25T17:20:11.201Z,81.30
2019-03-25T17:22:38.968Z,81.60
2019-03-25T17:25:07.832Z,81.90
2019-03-25T17:27:35.481Z,82.70
2019-03-25T17:30:04.139Z,84.20
2019-03-25T17:32:31.691Z,84.90
2019-03-25T17:34:59.137Z,85.40
2019-03-25T17:37:26.682Z,84.80
2019-03-25T17:39:54.617Z,85.00
2019-03-25T17:42:22.213Z,84.60
2019-03-25T17:44:49.808Z,85.00
2019-03-25T17:47:17.237Z,85.00
2019-03-25T17:49:44.749Z,86.00
2019-03-25T17:52:12.262Z,86.10
2019-03-25T17:54:39.794Z,86.90
2019-03-25T17:57:07.368Z,86.60
2019-03-25T17:59:35.125Z,85.50
2019-03-25T18:02:02.950Z,86.00
2019-03-25T18:04:30.909Z,87.60
2019-03-25T18:06:58.519Z,88.20
2019-03-25T18:09:26.047Z,88.60
2019-03-25T18:11:53.665Z,88.50
2019-03-25T18:14:21.272Z,89.40
2019-03-25T18:16:48.849Z,90.10
2019-03-25T18:19:16.400Z,90.20
2019-03-25T18:21:43.859Z,90.10
2019-03-25T18:24:11.425Z,90.40
2019-03-25T18:26:39.568Z,90.20
2019-03-25T18:29:07.005Z,90.10
2019-03-25T18:31:42.845Z,89.40
2019-03-25T18:34:04.013Z,90.00
2019-03-25T18:36:31.520Z,90.00
2019-03-25T18:38:59.196Z,90.00
2019-03-25T18:41:26.909Z,90.20
2019-03-25T18:43:54.731Z,90.40
2019-03-25T18:46:25.321Z,90.20
2019-03-25T18:48:53.088Z,90.30
2019-03-25T18:51:21.057Z,90.30
2019-03-25T18:53:49.141Z,90.30
2019-03-25T18:56:16.786Z,90.20
2019-03-25T18:58:44.366Z,90.50
2019-03-25T19:01:11.967Z,90.50
2019-03-25T19:03:39.965Z,90.50
2019-03-25T19:06:08.718Z,90.80
2019-03-25T19:08:38.440Z,91.00
2019-03-25T19:11:06.069Z,91.10
2019-03-25T19:13:33.716Z,91.30
2019-03-25T19:16:01.386Z,91.30
2019-03-25T19:18:28.973Z,91.00
2019-03-25T19:20:56.643Z,91.30
2019-03-25T19:23:24.301Z,91.30
2019-03-25T19:25:51.955Z,91.40
2019-03-25T19:28:19.681Z,91.70
2019-03-25T19:30:58.265Z,91.40
2019-03-25T19:33:26.339Z,91.40
2019-03-25T19:35:53.904Z,90.20
2019-03-25T19:38:21.556Z,90.40
2019-03-25T19:40:49.136Z,90.20
2019-03-25T19:43:17.237Z,90.20
2019-03-25T19:45:44.934Z,91.00
2019-03-25T19:48:12.598Z,90.90
2019-03-25T19:50:40.379Z,90.80
2019-03-25T19:53:18.654Z,90.50
2019-03-25T19:55:37.450Z,90.80
2019-03-25T19:58:05.574Z,90.90
2019-03-25T20:00:35.873Z,90.40
2019-03-25T20:03:07.016Z,90.20
2019-03-25T20:05:34.715Z,90.00
2019-03-25T20:08:05.583Z,90.70
2019-03-25T20:10:34.466Z,90.90
2019-03-25T20:13:02.929Z,90.40
2019-03-25T20:15:35.826Z,90.20
2019-03-25T20:18:01.172Z,90.10
2019-03-25T20:20:28.850Z,90.90
2019-03-25T20:22:59.209Z,90.90
2019-03-25T20:25:27.065Z,90.80
2019-03-25T20:27:55.038Z,89.40
2019-03-25T20:30:22.860Z,90.00
2019-03-25T20:32:50.573Z,90.20
2019-03-25T20:35:18.242Z,90.30
2019-03-25T20:37:46.617Z,91.30
2019-03-25T20:40:14.314Z,91.30
2019-03-25T20:42:42.068Z,91.20
2019-03-25T20:45:11.418Z,90.90
2019-03-25T20:47:39.159Z,90.70
2019-03-25T20:50:07.352Z,91.40
2019-03-25T20:52:35.333Z,91.40
2019-03-25T20:55:03.275Z,91.50
2019-03-25T20:57:31.119Z,91.30
2019-03-25T20:59:58.724Z,91.30
2019-03-25T21:02:26.528Z,91.10
2019-03-25T21:04:54.317Z,91.00
2019-03-25T21:07:22.129Z,90.70
2019-03-25T21:09:50.187Z,91.60
2019-03-25T21:12:17.847Z,91.40
2019-03-25T21:14:45.781Z,91.60
2019-03-25T21:17:15.007Z,91.60
2019-03-25T21:19:42.728Z,92.00
2019-03-25T21:22:10.709Z,91.70
2019-03-25T21:24:38.460Z,92.00
2019-03-25T21:27:08.790Z,92.00
2019-03-25T21:29:36.622Z,92.10
2019-03-25T21:32:04.396Z,91.90
2019-03-25T21:34:32.214Z,91.90
2019-03-25T21:36:59.909Z,92.30
2019-03-25T21:39:27.588Z,92.20
2019-03-25T21:41:55.262Z,92.20
2019-03-25T21:44:24.226Z,91.30
2019-03-25T21:46:51.865Z,91.00
2019-03-25T21:49:19.710Z,91.30
2019-03-25T21:51:47.344Z,90.70
2019-03-25T21:54:15.312Z,91.30
2019-03-25T21:56:44.713Z,91.30
2019-03-25T21:59:12.481Z,90.70
2019-03-25T22:01:40.186Z,90.60
2019-03-25T22:04:07.802Z,90.70
2019-03-25T22:06:35.452Z,90.90
2019-03-25T22:09:05.547Z,90.30
2019-03-25T22:11:34.193Z,90.30
2019-03-25T22:14:01.981Z,90.60
2019-03-25T22:16:31.989Z,90.10
2019-03-25T22:18:59.724Z,90.20
2019-03-25T22:21:27.284Z,90.10
2019-03-25T22:23:54.791Z,88.50
2019-03-25T22:26:22.516Z,88.30
2019-03-25T22:28:50.082Z,88.40
2019-03-25T22:31:17.740Z,88.30
2019-03-25T22:33:45.361Z,88.80
2019-03-25T22:36:12.888Z,88.50
2019-03-25T22:38:40.423Z,88.30
2019-03-25T22:41:08.082Z,87.70
2019-03-25T22:43:35.576Z,87.70
2019-03-25T22:46:03.194Z,87.20
2019-03-25T22:48:30.942Z,86.90
2019-03-25T22:50:58.880Z,86.40
2019-03-25T22:53:29.178Z,86.40
2019-03-25T22:55:56.754Z,85.70
2019-03-25T22:58:25.221Z,86.20
2019-03-25T23:00:53.003Z,86.80
2019-03-25T23:03:20.703Z,86.00
2019-03-25T23:05:48.458Z,86.50
2019-03-25T23:08:16.832Z,86.40
2019-03-25T23:10:44.466Z,86.20
2019-03-25T23:13:12.236Z,86.50
2019-03-25T23:15:39.956Z,86.20
2019-03-25T23:18:09.557Z,86.30
2019-03-25T23:20:37.132Z,87.10
2019-03-25T23:23:04.623Z,87.00
2019-03-25T23:25:32.227Z,86.20
2019-03-25T23:27:59.847Z,86.80
2019-03-25T23:30:27.400Z,87.30
2019-03-25T23:32:55.234Z,86.90
2019-03-25T23:35:22.736Z,87.80
2019-03-25T23:37:50.259Z,88.00
2019-03-25T23:40:19.550Z,88.20
2019-03-25T23:42:47.118Z,88.60
2019-03-25T23:45:14.885Z,89.60
2019-03-25T23:47:42.451Z,89.60
2019-03-25T23:50:11.530Z,89.10
2019-03-25T23:52:38.970Z,89.50
2019-03-25T23:55:06.699Z,89.60
2019-03-25T23:57:34.214Z,90.00
